createdAt,value
2023-04-14T00:00:23.148Z,4.73
2023-04-14T00:04:33.745Z,6.47
2023-04-14T00:08:45.558Z,6.83
2023-04-14T00:12:47.694Z,4.43
2023-04-14T00:16:49.168Z,5.90
2023-04-14T00:20:50.696Z,7.10
2023-04-14T00:24:52.049Z,9.03
2023-04-14T00:28:53.365Z,10.60
2023-04-14T00:32:54.926Z,7.67
2023-04-14T00:36:56.380Z,6.73
2023-04-14T00:40:57.702Z,5.07
2023-04-14T00:44:59.057Z,4.37
2023-04-14T00:49:00.756Z,6.43
2023-04-14T00:53:02.561Z,9.30
2023-04-14T00:57:05.329Z,7.37
2023-04-14T01:01:07.959Z,9.20
2023-04-14T01:05:09.536Z,8.50
2023-04-14T01:09:12.104Z,7.83
2023-04-14T01:13:35.107Z,6.27
2023-04-14T01:17:45.928Z,7.67
2023-04-14T01:21:52.147Z,8.60
2023-04-14T01:26:12.411Z,6.67
2023-04-14T01:30:44.059Z,5.73
2023-04-14T01:34:57.797Z,6.90
2023-04-14T01:39:02.305Z,4.87
2023-04-14T01:43:08.616Z,9.17
2023-04-14T01:47:13.396Z,6.70
2023-04-14T01:51:18.846Z,5.70
2023-04-14T01:55:21.940Z,7.47
2023-04-14T01:59:25.255Z,5.13
2023-04-14T02:03:27.765Z,5.87
2023-04-14T02:07:32.175Z,7.83
2023-04-14T02:11:35.786Z,6.93
2023-04-14T02:15:37.548Z,5.87
2023-04-14T02:19:41.175Z,7.73
2023-04-14T02:23:42.845Z,5.33
2023-04-14T02:27:49.737Z,6.77
2023-04-14T02:31:59.555Z,5.87
2023-04-14T02:36:04.335Z,7.10
2023-04-14T02:40:17.366Z,7.30
2023-04-14T02:44:23.105Z,8.30
2023-04-14T02:48:27.308Z,5.87
2023-04-14T02:52:31.591Z,6.17
2023-04-14T02:56:34.733Z,6.67
2023-04-14T03:00:39.944Z,6.07
2023-04-14T03:04:42.317Z,7.30
2023-04-14T03:08:44.354Z,6.33
2023-04-14T03:12:47.807Z,7.70
2023-04-14T03:16:54.199Z,6.80
2023-04-14T03:20:57.205Z,5.93
2023-04-14T03:24:59.005Z,6.37
2023-04-14T03:29:03.531Z,7.37
2023-04-14T03:33:08.333Z,8.63
2023-04-14T03:37:11.181Z,6.73
2023-04-14T03:41:14.107Z,7.07
2023-04-14T03:45:17.017Z,7.53
2023-04-14T03:49:20.666Z,6.03
2023-04-14T03:53:22.053Z,6.20
2023-04-14T03:57:24.594Z,5.87
2023-04-14T04:01:34.396Z,7.77
2023-04-14T04:05:40.742Z,8.17
2023-04-14T04:09:43.111Z,7.00
2023-04-14T04:13:47.100Z,6.60
2023-04-14T04:17:51.104Z,8.30
2023-04-14T04:21:57.130Z,9.77
2023-04-14T04:25:58.740Z,9.33
2023-04-14T04:30:00.367Z,8.50
2023-04-14T04:34:03.313Z,7.90
2023-04-14T04:38:05.814Z,8.60
2023-04-14T04:42:07.601Z,8.03
2023-04-14T04:46:19.634Z,8.83
2023-04-14T04:50:21.128Z,7.57
2023-04-14T04:54:22.848Z,9.10
2023-04-14T04:58:24.293Z,8.93
2023-04-14T05:02:25.827Z,9.27
2023-04-14T05:06:28.213Z,7.83
2023-04-14T05:10:29.678Z,8.57
2023-04-14T05:14:31.104Z,5.93
2023-04-14T05:18:32.962Z,12.20
2023-04-14T05:22:35.444Z,11.80
2023-04-14T05:26:54.805Z,8.33
2023-04-14T05:31:01.272Z,7.80
2023-04-14T05:35:03.237Z,6.97
2023-04-14T05:39:04.598Z,7.20
2023-04-14T05:43:06.049Z,9.70
2023-04-14T05:47:07.446Z,9.03
2023-04-14T05:51:16.699Z,10.90
2023-04-14T05:55:29.564Z,10.73
2023-04-14T05:59:43.462Z,7.33
2023-04-14T06:03:46.167Z,6.17
2023-04-14T06:07:50.844Z,10.07
2023-04-14T06:11:54.647Z,6.80
2023-04-14T06:15:56.149Z,6.63
2023-04-14T06:19:58.093Z,7.57
2023-04-14T06:24:07.074Z,7.40
2023-04-14T06:28:08.739Z,10.83
2023-04-14T06:32:10.210Z,10.53
2023-04-14T06:36:11.614Z,9.37
2023-04-14T06:40:13.258Z,6.90
2023-04-14T06:44:14.764Z,8.23
2023-04-14T06:48:16.323Z,8.77
2023-04-14T06:52:17.657Z,6.97
2023-04-14T06:56:19.107Z,5.60
2023-04-14T07:00:20.777Z,6.07
2023-04-14T07:04:22.790Z,7.13
2023-04-14T07:08:24.104Z,6.87
2023-04-14T07:12:25.625Z,8.00
2023-04-14T07:16:26.981Z,7.65
2023-04-14T07:20:32.345Z,8.63
2023-04-14T07:24:33.626Z,7.85
2023-04-14T07:28:35.019Z,9.27
2023-04-14T07:32:36.380Z,8.82
2023-04-14T07:36:37.805Z,8.35
2023-04-14T07:40:40.183Z,6.03
2023-04-14T07:44:41.685Z,5.72
2023-04-14T07:48:43.034Z,4.57
2023-04-14T07:53:12.587Z,5.68
2023-04-14T07:57:14.196Z,7.10
2023-04-14T08:01:15.610Z,4.63
2023-04-14T08:05:17.083Z,6.97
2023-04-14T08:09:18.465Z,3.85
2023-04-14T08:13:19.897Z,4.20
2023-04-14T08:17:21.474Z,7.93
2023-04-14T08:21:22.859Z,8.63
2023-04-14T08:25:24.333Z,5.60
2023-04-14T08:29:26.303Z,4.80
2023-04-14T08:33:27.640Z,6.10
2023-04-14T08:37:29.040Z,6.53
2023-04-14T08:41:33.420Z,8.65
2023-04-14T08:45:35.711Z,5.22
2023-04-14T08:49:45.506Z,6.07
2023-04-14T08:53:48.316Z,8.43
2023-04-14T08:57:50.787Z,6.05
2023-04-14T09:01:52.721Z,5.00
2023-04-14T09:05:54.623Z,8.18
2023-04-14T09:09:57.339Z,6.68
2023-04-14T09:13:59.618Z,6.57
2023-04-14T09:18:02.195Z,5.78
2023-04-14T09:22:03.879Z,4.13
2023-04-14T09:26:09.141Z,4.30
2023-04-14T09:30:11.277Z,6.50
2023-04-14T09:34:18.168Z,5.57
2023-04-14T09:38:34.528Z,5.35
2023-04-14T09:42:51.706Z,4.47
2023-04-14T09:47:00.717Z,3.63
2023-04-14T09:51:09.456Z,3.58
2023-04-14T09:55:15.965Z,5.63
2023-04-14T09:59:18.898Z,3.83
2023-04-14T10:03:34.854Z,4.78
2023-04-14T10:07:41.896Z,4.00
2023-04-14T10:11:43.320Z,4.90
2023-04-14T10:15:44.758Z,4.28
2023-04-14T10:19:46.702Z,5.15
2023-04-14T10:23:48.886Z,6.35
2023-04-14T10:27:50.959Z,5.25
2023-04-14T10:32:01.531Z,5.30
2023-04-14T10:36:03.040Z,5.38
2023-04-14T10:40:06.780Z,3.83
2023-04-14T10:44:25.888Z,5.85
2023-04-14T10:48:33.336Z,4.65
2023-04-14T10:52:34.766Z,4.53
2023-04-14T10:56:38.328Z,3.63
2023-04-14T11:00:39.851Z,4.25
2023-04-14T11:05:03.776Z,6.45
2023-04-14T11:09:23.068Z,4.05
2023-04-14T11:13:24.531Z,5.20
2023-04-14T11:17:30.275Z,4.00
2023-04-14T11:21:31.956Z,3.92
2023-04-14T11:25:34.019Z,4.13
2023-04-14T11:29:35.331Z,3.67
2023-04-14T11:33:41.988Z,3.20
2023-04-14T11:37:44.893Z,3.50
2023-04-14T11:41:47.580Z,2.60
2023-04-14T11:45:49.828Z,4.00
2023-04-14T11:49:51.902Z,4.53
2023-04-14T11:53:55.680Z,3.95
2023-04-14T11:57:57.878Z,3.35
2023-04-14T12:01:59.399Z,6.45
2023-04-14T12:06:03.063Z,6.68
2023-04-14T12:10:05.528Z,3.53
2023-04-14T12:14:07.113Z,3.17
2023-04-14T12:18:10.494Z,5.15
2023-04-14T12:22:12.174Z,3.53
2023-04-14T12:26:13.922Z,3.75
2023-04-14T12:30:20.738Z,4.05
2023-04-14T12:34:26.359Z,2.28
2023-04-14T12:38:29.227Z,3.22
2023-04-14T12:42:44.394Z,4.05
2023-04-14T12:46:48.608Z,3.55
2023-04-14T12:50:51.270Z,6.22
2023-04-14T12:54:53.168Z,4.47
2023-04-14T12:58:55.253Z,2.15
2023-04-14T13:02:56.854Z,3.95
2023-04-14T13:06:58.455Z,3.17
2023-04-14T13:11:00.322Z,3.50
2023-04-14T13:15:01.872Z,2.90
2023-04-14T13:19:04.530Z,3.53
2023-04-14T13:23:06.801Z,3.30
2023-04-14T13:27:08.241Z,2.30
2023-04-14T13:31:10.498Z,2.83
2023-04-14T13:35:11.958Z,3.77
2023-04-14T13:39:13.975Z,2.40
2023-04-14T13:43:17.471Z,5.53
2023-04-14T13:47:19.001Z,2.03
2023-04-14T13:51:21.713Z,5.10
2023-04-14T13:55:23.097Z,3.27
2023-04-14T13:59:24.483Z,2.63
2023-04-14T14:03:27.389Z,2.83
2023-04-14T14:07:29.864Z,3.20
2023-04-14T14:11:31.513Z,3.03
2023-04-14T14:15:33.110Z,2.43
2023-04-14T14:19:34.429Z,1.63
2023-04-14T14:23:36.161Z,2.83
2023-04-14T14:27:37.612Z,2.37
2023-04-14T14:31:39.189Z,1.87
2023-04-14T14:35:40.676Z,2.63
2023-04-14T14:39:42.197Z,2.37
2023-04-14T14:43:43.516Z,3.03
2023-04-14T14:47:44.949Z,2.60
2023-04-14T14:51:46.296Z,1.45
2023-04-14T14:55:47.707Z,1.55
2023-04-14T14:59:49.171Z,2.72
2023-04-14T15:03:50.542Z,1.80
2023-04-14T15:07:51.920Z,4.13
2023-04-14T15:11:53.264Z,3.55
2023-04-14T15:15:54.790Z,3.42
2023-04-14T15:19:56.681Z,4.10
2023-04-14T15:23:58.501Z,1.87
2023-04-14T15:27:59.982Z,1.80
2023-04-14T15:32:01.500Z,2.83
2023-04-14T15:36:02.936Z,2.73
2023-04-14T15:40:04.617Z,2.70
2023-04-14T15:44:06.113Z,3.43
2023-04-14T15:48:07.668Z,2.90
2023-04-14T15:52:09.036Z,2.73
2023-04-14T15:56:10.416Z,4.17
2023-04-14T16:00:12.468Z,3.00
2023-04-14T16:04:13.908Z,5.67
2023-04-14T16:08:16.838Z,2.93
2023-04-14T16:12:18.250Z,2.60
2023-04-14T16:16:19.871Z,2.90
2023-04-14T16:20:21.384Z,2.80
2023-04-14T16:24:22.671Z,3.77
2023-04-14T16:28:24.941Z,3.27
2023-04-14T16:32:27.108Z,2.67
2023-04-14T16:36:28.981Z,2.80
2023-04-14T16:40:30.367Z,3.27
2023-04-14T16:44:32.602Z,3.83
2023-04-14T16:48:35.671Z,3.73
2023-04-14T16:52:37.020Z,4.07
2023-04-14T16:56:38.686Z,3.87
2023-04-14T17:00:40.027Z,3.10
2023-04-14T17:04:41.493Z,2.93
2023-04-14T17:08:42.936Z,1.80
2023-04-14T17:12:44.498Z,3.93
2023-04-14T17:16:45.850Z,3.10
2023-04-14T17:20:47.203Z,2.43
2023-04-14T17:24:48.804Z,4.10
2023-04-14T17:28:50.163Z,2.47
2023-04-14T17:32:51.977Z,5.13
2023-04-14T17:36:54.075Z,2.50
2023-04-14T17:40:55.565Z,3.47
2023-04-14T17:44:57.553Z,2.07
2023-04-14T17:49:00.609Z,3.23
2023-04-14T17:53:02.036Z,3.03
2023-04-14T17:57:04.298Z,3.20
2023-04-14T18:01:05.857Z,2.47
2023-04-14T18:05:08.219Z,2.87
2023-04-14T18:09:10.472Z,4.00
2023-04-14T18:13:12.650Z,3.37
2023-04-14T18:17:14.060Z,3.33
2023-04-14T18:21:16.260Z,5.83
2023-04-14T18:25:20.152Z,2.73
2023-04-14T18:29:21.645Z,3.37
2023-04-14T18:33:22.989Z,4.40
2023-04-14T18:37:24.385Z,6.20
2023-04-14T18:41:25.832Z,3.23
2023-04-14T18:45:27.498Z,4.00
2023-04-14T18:49:28.860Z,4.93
2023-04-14T18:53:30.340Z,2.67
2023-04-14T18:57:31.719Z,6.63
2023-04-14T19:01:35.853Z,5.00
2023-04-14T19:05:37.659Z,6.43
2023-04-14T19:09:39.077Z,5.03
2023-04-14T19:13:42.148Z,6.00
2023-04-14T19:17:43.834Z,4.20
2023-04-14T19:21:45.255Z,6.40
2023-04-14T19:25:46.545Z,6.70
2023-04-14T19:29:48.150Z,7.20
2023-04-14T19:33:49.608Z,8.50
2023-04-14T19:37:55.496Z,7.87
2023-04-14T19:42:00.029Z,16.67
2023-04-14T19:46:04.758Z,7.43
2023-04-14T19:50:06.539Z,7.60
2023-04-14T19:54:08.006Z,12.33
2023-04-14T19:58:09.386Z,7.30
2023-04-14T20:02:13.054Z,9.87
2023-04-14T20:06:14.589Z,7.80
2023-04-14T20:10:16.024Z,8.37
2023-04-14T20:14:17.388Z,7.60
2023-04-14T20:18:18.821Z,5.77
2023-04-14T20:22:20.093Z,8.10
2023-04-14T20:26:23.012Z,6.97
2023-04-14T20:30:24.329Z,8.17
2023-04-14T20:34:26.541Z,8.80
2023-04-14T20:38:29.042Z,9.73
2023-04-14T20:42:30.356Z,8.47
2023-04-14T20:46:31.920Z,6.83
2023-04-14T20:50:33.787Z,5.77
2023-04-14T20:54:35.356Z,6.17
2023-04-14T20:58:37.041Z,5.93
2023-04-14T21:02:38.794Z,10.27
2023-04-14T21:06:40.415Z,8.43
2023-04-14T21:11:14.405Z,6.20
2023-04-14T21:15:41.479Z,5.93
2023-04-14T21:19:27.225Z,5.27
2023-04-14T21:23:28.646Z,7.87
2023-04-14T21:27:30.034Z,6.13
2023-04-14T21:31:32.022Z,6.00
2023-04-14T21:35:33.443Z,4.53
2023-04-14T21:39:35.239Z,6.53
2023-04-14T21:43:38.584Z,6.80
2023-04-14T21:47:40.799Z,3.33
2023-04-14T21:51:43.792Z,5.40
2023-04-14T21:55:45.851Z,6.37
2023-04-14T21:59:47.236Z,5.57
2023-04-14T22:03:48.923Z,7.20
2023-04-14T22:07:50.389Z,7.73
2023-04-14T22:11:52.413Z,3.50
2023-04-14T22:15:55.085Z,6.97
2023-04-14T22:19:56.580Z,5.03
2023-04-14T22:23:58.451Z,3.97
2023-04-14T22:27:59.798Z,4.53
2023-04-14T22:32:01.466Z,4.30
2023-04-14T22:36:04.397Z,4.37
2023-04-14T22:40:06.544Z,6.50
2023-04-14T22:44:07.926Z,7.17
2023-04-14T22:48:10.363Z,10.63
2023-04-14T22:52:11.712Z,6.33
2023-04-14T22:56:13.097Z,7.43
2023-04-14T23:00:16.224Z,8.97
2023-04-14T23:04:17.732Z,12.23
2023-04-14T23:08:19.169Z,13.87
2023-04-14T23:12:20.708Z,12.70
2023-04-14T23:16:22.280Z,12.60
2023-04-14T23:20:24.334Z,15.40
2023-04-14T23:24:26.017Z,8.93
2023-04-14T23:28:27.328Z,10.07
2023-04-14T23:32:28.683Z,13.27
2023-04-14T23:36:30.728Z,6.97
2023-04-14T23:40:33.469Z,13.10
2023-04-14T23:44:34.759Z,13.27
2023-04-14T23:48:36.614Z,12.27
2023-04-14T23:52:37.974Z,12.63
2023-04-14T23:56:39.374Z,10.10
